Time;durP1;ratioP1;P1;durP2;ratioP2;P2;SDS_P1;SDS_P2;PMS_P1;PMS_P2;Temp;Humidity;BMP_temperature;BMP_pressure;BME280_temperature;BME280_humidity;BME280_pressure;Samples;Min_cycle;Max_cycle;Signal;HPM_P1;HPM_P2
2021/09/25 00:02:00;;;;;;;1.03;0.77;;;15.00;99.90;;;;;;5130789;28;20450;-79
2021/09/25 00:04:27;;;;;;;0.50;0.40;;;15.10;99.90;;;;;;5130815;28;20448;-79
2021/09/25 00:06:54;;;;;;;0.50;0.30;;;15.10;99.90;;;;;;5131308;28;20430;-80
2021/09/25 00:09:22;;;;;;;0.50;0.50;;;15.00;99.90;;;;;;5130414;28;20464;-81
2021/09/25 00:11:49;;;;;;;0.70;0.70;;;15.00;99.90;;;;;;5130745;28;20474;-81
2021/09/25 00:14:17;;;;;;;3.60;0.87;;;15.00;99.90;;;;;;5131275;28;20452;-79
2021/09/25 00:16:43;;;;;;;0.80;0.50;;;14.90;99.90;;;;;;5130756;28;20829;-80
2021/09/25 00:19:10;;;;;;;2.60;2.23;;;14.90;99.90;;;;;;5130434;28;20438;-81
2021/09/25 00:21:39;;;;;;;0.60;0.57;;;14.90;99.90;;;;;;5130561;28;20435;-81
2021/09/25 00:24:07;;;;;;;0.50;0.40;;;14.90;99.90;;;;;;5130699;28;20435;-80
2021/09/25 00:26:34;;;;;;;0.60;0.60;;;14.90;99.90;;;;;;5130770;28;20433;-80
2021/09/25 00:29:01;;;;;;;0.60;0.53;;;14.90;99.90;;;;;;5130311;28;20439;-80
2021/09/25 00:31:29;;;;;;;0.50;0.40;;;14.80;99.90;;;;;;5130652;28;20469;-81
2021/09/25 00:33:55;;;;;;;1.67;1.57;;;14.80;99.90;;;;;;5130601;28;20480;-80
2021/09/25 00:36:22;;;;;;;2.77;1.57;;;14.80;99.90;;;;;;5130987;28;20685;-81
2021/09/25 00:38:49;;;;;;;2.43;2.23;;;14.80;99.90;;;;;;5130358;28;20439;-80
2021/09/25 00:41:16;;;;;;;1.07;0.73;;;14.80;99.90;;;;;;5130391;28;20469;-81
2021/09/25 00:43:43;;;;;;;0.50;0.40;;;14.80;99.90;;;;;;5129371;28;20427;-80
2021/09/25 00:46:13;;;;;;;5.23;3.10;;;14.70;99.90;;;;;;5130159;28;20442;-79
2021/09/25 00:48:42;;;;;;;1.10;0.63;;;14.70;99.90;;;;;;5130748;28;20434;-80
2021/09/25 00:51:09;;;;;;;0.87;0.87;;;14.70;99.90;;;;;;5128988;28;20462;-81
2021/09/25 00:53:36;;;;;;;2.60;0.93;;;14.70;99.90;;;;;;5129998;28;21014;-81
2021/09/25 00:56:04;;;;;;;0.50;0.40;;;14.70;99.90;;;;;;5130483;28;20434;-80
2021/09/25 00:58:31;;;;;;;0.50;0.43;;;14.70;99.90;;;;;;5131177;28;20438;-79
2021/09/25 01:00:58;;;;;;;0.50;0.40;;;14.70;99.90;;;;;;5128894;28;20473;-80
2021/09/25 01:03:24;;;;;;;0.50;0.40;;;14.70;99.90;;;;;;5127821;27;20432;-79
2021/09/25 01:05:53;;;;;;;1.20;1.10;;;14.60;99.90;;;;;;5129413;28;20463;-81
2021/09/25 01:08:22;;;;;;;0.50;0.40;;;14.60;99.90;;;;;;5130898;28;20431;-81
2021/09/25 01:10:50;;;;;;;0.53;0.47;;;14.60;99.90;;;;;;5130082;28;20466;-80
2021/09/25 01:13:17;;;;;;;1.27;1.17;;;14.60;99.90;;;;;;5130627;28;20478;-78
2021/09/25 01:15:44;;;;;;;0.50;0.30;;;14.60;99.90;;;;;;5129927;28;20441;-80
2021/09/25 01:18:10;;;;;;;0.67;0.63;;;14.60;99.90;;;;;;5130141;28;20443;-81
2021/09/25 01:20:38;;;;;;;0.73;0.73;;;14.50;99.90;;;;;;5129506;28;20451;-81
2021/09/25 01:23:06;;;;;;;0.50;0.40;;;14.60;99.90;;;;;;5129881;28;20438;-80
2021/09/25 01:25:33;;;;;;;0.70;0.63;;;14.50;99.90;;;;;;5129995;28;20443;-81
2021/09/25 01:28:01;;;;;;;1.30;1.20;;;14.50;99.90;;;;;;5128747;28;20803;-80
2021/09/25 01:30:28;;;;;;;0.80;0.73;;;14.50;99.90;;;;;;5129049;28;20458;-81
2021/09/25 01:32:56;;;;;;;0.50;0.40;;;14.50;99.90;;;;;;5129754;28;20470;-80
2021/09/25 01:35:24;;;;;;;2.40;1.03;;;14.50;99.90;;;;;;5129931;28;20445;-80
2021/09/25 01:37:53;;;;;;;0.50;0.40;;;14.40;99.90;;;;;;5129053;28;20450;-80
2021/09/25 01:40:21;;;;;;;0.60;0.53;;;14.40;99.90;;;;;;5128888;28;20980;-80
2021/09/25 01:42:48;;;;;;;0.50;0.40;;;14.40;99.90;;;;;;5129469;28;20442;-81
2021/09/25 01:45:15;;;;;;;0.50;0.40;;;14.40;99.90;;;;;;5129275;28;20441;-79
2021/09/25 01:47:42;;;;;;;0.90;0.90;;;14.40;99.90;;;;;;5128731;28;20450;-80
2021/09/25 01:50:11;;;;;;;1.63;0.80;;;14.40;99.90;;;;;;5128417;28;20455;-78
2021/09/25 01:52:38;;;;;;;0.50;0.40;;;14.30;99.90;;;;;;5128653;28;20539;-79
2021/09/25 01:55:06;;;;;;;0.50;0.40;;;14.30;99.90;;;;;;5128715;28;20423;-81
2021/09/25 01:57:34;;;;;;;0.50;0.40;;;14.30;99.90;;;;;;5129125;28;20441;-81
2021/09/25 02:00:01;;;;;;;0.50;0.40;;;14.40;99.90;;;;;;5128394;27;20475;-81
2021/09/25 02:02:28;;;;;;;0.50;0.30;;;14.40;99.90;;;;;;5128573;28;20430;-83
2021/09/25 02:04:55;;;;;;;2.07;1.50;;;14.50;99.90;;;;;;5128610;28;20425;-81
2021/09/25 02:07:22;;;;;;;0.50;0.40;;;14.50;99.90;;;;;;5131241;28;20450;-83
2021/09/25 02:09:49;;;;;;;0.87;0.50;;;14.50;99.90;;;;;;5130282;28;20449;-81
2021/09/25 02:12:16;;;;;;;0.50;0.40;;;14.60;99.90;;;;;;5131440;28;20492;-82
2021/09/25 02:14:45;;;;;;;0.60;0.40;;;14.60;99.90;;;;;;5128942;28;20449;-81
2021/09/25 02:17:12;;;;;;;1.83;1.70;;;14.70;99.90;;;;;;5130016;28;20434;-83
2021/09/25 02:19:38;;;;;;;0.50;0.50;;;14.80;99.90;;;;;;5129865;28;20454;-83
2021/09/25 02:22:05;;;;;;;0.80;0.80;;;14.90;99.90;;;;;;5131424;28;20423;-82
2021/09/25 02:24:32;;;;;;;1.03;1.03;;;14.90;99.90;;;;;;5131728;28;20430;-80
2021/09/25 02:27:00;;;;;;;0.60;0.40;;;14.90;99.90;;;;;;5130277;28;20446;-83
2021/09/25 02:29:27;;;;;;;0.50;0.50;;;15.00;99.90;;;;;;5129478;28;20464;-80
2021/09/25 02:31:55;;;;;;;0.50;0.30;;;15.00;99.90;;;;;;5128801;28;20427;-83
2021/09/25 02:34:22;;;;;;;0.50;0.43;;;15.00;99.90;;;;;;5129336;28;20583;-81
2021/09/25 02:36:48;;;;;;;0.70;0.70;;;15.00;99.90;;;;;;5135461;28;20435;-80
2021/09/25 02:39:15;;;;;;;1.37;1.27;;;15.00;99.90;;;;;;5135273;28;20449;-82
2021/09/25 02:41:42;;;;;;;0.97;0.97;;;15.10;99.90;;;;;;5134067;28;20498;-82
2021/09/25 02:44:08;;;;;;;2.87;2.77;;;15.10;99.90;;;;;;5130628;28;20432;-82
2021/09/25 02:46:35;;;;;;;5.57;1.20;;;15.10;99.90;;;;;;5128885;28;20438;-82
2021/09/25 02:49:03;;;;;;;0.50;0.40;;;15.10;99.90;;;;;;5128901;28;20415;-81
2021/09/25 02:51:30;;;;;;;0.60;0.60;;;15.10;99.90;;;;;;5128538;28;20511;-82
2021/09/25 02:53:57;;;;;;;0.50;0.50;;;15.10;99.90;;;;;;5129317;28;20474;-82
2021/09/25 02:56:23;;;;;;;0.70;0.70;;;15.10;99.90;;;;;;5129517;28;20447;-81
2021/09/25 02:58:50;;;;;;;0.50;0.40;;;15.10;99.90;;;;;;5129862;28;20439;-83
2021/09/25 03:01:17;;;;;;;0.50;0.43;;;15.10;99.90;;;;;;5128719;28;20464;-83
2021/09/25 03:03:44;;;;;;;0.50;0.30;;;15.00;99.90;;;;;;5129785;28;20438;-82
2021/09/25 03:06:12;;;;;;;2.80;1.03;;;15.00;99.90;;;;;;5131470;28;20494;-83
2021/09/25 03:08:38;;;;;;;0.50;0.40;;;15.00;99.90;;;;;;5133802;28;20429;-82
2021/09/25 03:11:05;;;;;;;0.70;0.70;;;15.00;99.90;;;;;;5132901;28;20466;-82
2021/09/25 03:13:32;;;;;;;3.73;1.30;;;15.00;99.90;;;;;;5132917;28;20481;-82
2021/09/25 03:16:00;;;;;;;0.50;0.40;;;15.00;99.90;;;;;;5132554;28;20441;-83
2021/09/25 03:18:27;;;;;;;2.70;1.23;;;15.00;99.90;;;;;;5133172;28;20517;-83
2021/09/25 03:20:54;;;;;;;0.50;0.50;;;15.10;99.90;;;;;;5133066;28;20458;-83
2021/09/25 03:23:22;;;;;;;0.50;0.40;;;15.00;99.90;;;;;;5133185;27;20533;-82
2021/09/25 03:25:50;;;;;;;2.23;2.13;;;15.00;99.90;;;;;;5133041;28;20491;-82
2021/09/25 03:28:17;;;;;;;2.90;1.50;;;15.00;99.90;;;;;;5132306;28;20475;-82
2021/09/25 03:30:43;;;;;;;0.50;0.40;;;15.00;99.90;;;;;;5132470;28;20889;-84
2021/09/25 03:33:10;;;;;;;4.53;2.07;;;15.00;99.90;;;;;;5132563;28;20824;-82
2021/09/25 03:35:37;;;;;;;1.47;1.37;;;15.00;99.90;;;;;;5132145;28;20450;-82
2021/09/25 03:38:04;;;;;;;0.80;0.77;;;15.00;99.90;;;;;;5132617;28;20441;-82
2021/09/25 03:40:33;;;;;;;2.43;2.23;;;15.00;99.90;;;;;;5131960;28;20465;-82
2021/09/25 03:42:59;;;;;;;0.77;0.77;;;15.00;99.90;;;;;;5131275;28;20445;-82
2021/09/25 03:45:26;;;;;;;1.87;1.80;;;15.00;99.90;;;;;;5131430;28;20441;-80
2021/09/25 03:47:57;;;;;;;1.33;1.23;;;15.00;99.90;;;;;;5131659;28;20449;-83
2021/09/25 03:50:24;;;;;;;3.63;1.70;;;15.00;99.90;;;;;;5131329;28;20490;-81
2021/09/25 03:52:51;;;;;;;0.50;0.40;;;15.00;99.90;;;;;;5131793;28;20431;-81
2021/09/25 03:55:17;;;;;;;3.00;1.63;;;15.00;99.90;;;;;;5131152;27;20441;-82
2021/09/25 03:57:45;;;;;;;0.50;0.47;;;15.00;99.90;;;;;;5132392;28;20438;-82
2021/09/25 04:00:13;;;;;;;0.57;0.50;;;15.00;99.90;;;;;;5130917;27;20461;-81
2021/09/25 04:02:39;;;;;;;2.80;1.57;;;15.00;99.90;;;;;;5133267;28;20427;-81
2021/09/25 04:05:07;;;;;;;2.50;2.30;;;15.10;99.90;;;;;;5133113;28;20433;-80
2021/09/25 04:07:34;;;;;;;1.17;1.17;;;15.00;99.90;;;;;;5132144;28;20432;-80
2021/09/25 04:10:01;;;;;;;0.70;0.70;;;15.00;99.90;;;;;;5121918;28;20450;-81
2021/09/25 04:12:27;;;;;;;5.50;0.60;;;15.00;99.90;;;;;;5121968;28;20522;-80
2021/09/25 04:14:55;;;;;;;1.33;1.23;;;15.10;99.90;;;;;;5122446;28;20467;-80
2021/09/25 04:17:22;;;;;;;1.33;1.23;;;15.10;99.90;;;;;;5121931;28;20804;-80
2021/09/25 04:19:49;;;;;;;0.67;0.67;;;15.10;99.90;;;;;;5122912;28;20466;-80
2021/09/25 04:22:16;;;;;;;2.20;2.07;;;15.10;99.90;;;;;;5121682;28;20442;-80
2021/09/25 04:24:43;;;;;;;0.50;0.40;;;15.10;99.90;;;;;;5122199;28;20441;-80
2021/09/25 04:27:10;;;;;;;1.57;1.47;;;15.10;99.90;;;;;;5121173;28;20442;-80
2021/09/25 04:29:36;;;;;;;2.20;1.80;;;15.10;99.90;;;;;;5121061;28;20456;-80
2021/09/25 04:32:05;;;;;;;1.43;1.33;;;15.10;99.90;;;;;;5121207;28;20442;-80
2021/09/25 04:34:32;;;;;;;0.70;0.57;;;15.20;99.90;;;;;;5121379;28;20474;-80
2021/09/25 04:36:59;;;;;;;0.50;0.40;;;15.20;99.90;;;;;;5121326;28;20789;-81
2021/09/25 04:39:26;;;;;;;0.67;0.63;;;15.20;99.90;;;;;;5120554;28;20438;-80
2021/09/25 04:41:54;;;;;;;1.70;1.60;;;15.20;99.90;;;;;;5120060;28;21042;-80
2021/09/25 04:44:20;;;;;;;1.20;0.70;;;15.20;99.90;;;;;;5120563;28;20472;-81
2021/09/25 04:46:47;;;;;;;0.60;0.60;;;15.20;99.90;;;;;;5120056;28;20443;-81
2021/09/25 04:49:16;;;;;;;0.70;0.70;;;15.20;99.90;;;;;;5119951;28;20443;-80
2021/09/25 04:51:43;;;;;;;2.73;2.13;;;15.20;99.90;;;;;;5121130;27;20462;-80
2021/09/25 04:54:10;;;;;;;6.00;2.93;;;15.10;99.90;;;;;;5121492;28;20479;-81
2021/09/25 04:56:37;;;;;;;0.70;0.70;;;15.10;99.90;;;;;;5121021;28;20443;-80
2021/09/25 04:59:03;;;;;;;1.57;1.40;;;15.20;99.90;;;;;;5121603;28;20513;-80
2021/09/25 05:01:31;;;;;;;2.30;1.27;;;15.20;99.90;;;;;;5122095;28;20890;-81
2021/09/25 05:04:00;;;;;;;0.70;0.47;;;15.20;99.90;;;;;;5121542;28;20530;-80
2021/09/25 05:06:28;;;;;;;2.20;1.33;;;15.20;99.90;;;;;;5129950;28;20489;-79
2021/09/25 05:08:55;;;;;;;0.50;0.40;;;15.20;99.90;;;;;;5130541;28;21007;-83
2021/09/25 05:11:23;;;;;;;5.03;1.60;;;15.20;99.90;;;;;;5129017;28;20451;-81
2021/09/25 05:13:50;;;;;;;0.50;0.40;;;15.20;99.90;;;;;;5128652;28;20557;-82
2021/09/25 05:16:16;;;;;;;0.50;0.37;;;15.30;99.90;;;;;;5127585;28;20988;-81
2021/09/25 05:18:43;;;;;;;0.50;0.40;;;15.20;99.90;;;;;;5128212;27;20447;-81
2021/09/25 05:21:10;;;;;;;0.50;0.50;;;15.30;99.90;;;;;;5127507;28;20455;-83
2021/09/25 05:23:38;;;;;;;1.47;1.47;;;15.20;99.90;;;;;;5128559;28;20427;-81
2021/09/25 05:26:06;;;;;;;0.50;0.40;;;15.30;99.90;;;;;;5127098;28;20431;-80
2021/09/25 05:28:33;;;;;;;0.50;0.30;;;15.20;99.90;;;;;;5123285;28;20435;-80
2021/09/25 05:30:59;;;;;;;0.50;0.30;;;15.20;99.90;;;;;;5123805;28;20520;-80
2021/09/25 05:33:26;;;;;;;2.40;1.80;;;15.20;99.90;;;;;;5123601;28;20446;-82
2021/09/25 05:35:53;;;;;;;5.83;5.23;;;15.20;99.90;;;;;;5123917;28;20438;-80
2021/09/25 05:38:20;;;;;;;0.90;0.80;;;15.20;99.90;;;;;;5123733;28;20450;-80
2021/09/25 05:40:48;;;;;;;0.50;0.30;;;15.20;99.90;;;;;;5122976;28;20458;-80
2021/09/25 05:43:14;;;;;;;0.70;0.70;;;15.20;99.90;;;;;;5122583;28;20443;-80
2021/09/25 05:45:41;;;;;;;0.50;0.30;;;15.20;99.90;;;;;;5123546;28;20443;-82
2021/09/25 05:48:08;;;;;;;2.60;2.40;;;15.20;99.90;;;;;;5123585;28;20959;-82
2021/09/25 05:50:35;;;;;;;0.50;0.40;;;15.20;99.90;;;;;;5122579;28;20452;-80
2021/09/25 05:53:01;;;;;;;0.57;0.53;;;15.20;99.90;;;;;;5124885;28;20439;-81
2021/09/25 05:55:28;;;;;;;0.80;0.80;;;15.30;99.90;;;;;;5127778;28;20475;-83
2021/09/25 05:58:01;;;;;;;2.17;2.07;;;15.30;99.90;;;;;;5128869;27;20469;-81
2021/09/25 06:00:28;;;;;;;0.50;0.37;;;15.30;99.90;;;;;;5126980;28;20466;-82
2021/09/25 06:02:57;;;;;;;4.17;3.80;;;15.30;99.90;;;;;;5128479;28;20442;-80
2021/09/25 06:05:25;;;;;;;0.50;0.30;;;15.30;99.90;;;;;;5126607;28;21037;-81
2021/09/25 06:07:52;;;;;;;0.87;0.87;;;15.30;99.90;;;;;;5127333;28;20435;-80
2021/09/25 06:10:19;;;;;;;1.10;0.97;;;15.30;99.90;;;;;;5123580;28;20457;-81
2021/09/25 06:12:45;;;;;;;0.50;0.30;;;15.30;99.90;;;;;;5122949;28;20438;-80
2021/09/25 06:15:14;;;;;;;1.27;1.00;;;15.30;99.90;;;;;;5122886;28;20467;-80
2021/09/25 06:17:41;;;;;;;3.80;1.13;;;15.40;99.90;;;;;;5123561;28;20920;-80
2021/09/25 06:20:09;;;;;;;0.50;0.40;;;15.40;99.90;;;;;;5123040;28;20832;-81
2021/09/25 06:22:36;;;;;;;0.50;0.40;;;15.40;99.90;;;;;;5124789;28;20436;-79
2021/09/25 06:25:03;;;;;;;0.50;0.40;;;15.50;99.90;;;;;;5124465;28;20438;-81
2021/09/25 06:27:30;;;;;;;1.53;1.40;;;15.50;99.90;;;;;;5125626;28;20424;-78
2021/09/25 06:29:57;;;;;;;0.50;0.40;;;15.60;99.90;;;;;;5125524;28;20450;-80
2021/09/25 06:32:25;;;;;;;0.50;0.30;;;15.60;99.90;;;;;;5124714;28;20432;-80
2021/09/25 06:34:52;;;;;;;0.50;0.40;;;15.60;99.90;;;;;;5126276;28;20465;-81
2021/09/25 06:37:19;;;;;;;1.57;1.47;;;15.70;99.90;;;;;;5124961;28;20442;-83
2021/09/25 06:39:46;;;;;;;0.50;0.40;;;15.70;99.90;;;;;;5123244;28;20451;-79
2021/09/25 06:42:13;;;;;;;0.50;0.40;;;15.70;99.90;;;;;;5124448;28;20462;-83
2021/09/25 06:44:39;;;;;;;1.10;1.00;;;15.70;99.90;;;;;;5124493;28;20462;-81
2021/09/25 06:47:06;;;;;;;14.70;11.67;;;15.80;99.90;;;;;;5123956;28;20442;-81
2021/09/25 06:49:34;;;;;;;0.80;0.77;;;15.80;99.90;;;;;;5124448;28;20572;-80
2021/09/25 06:52:01;;;;;;;1.10;0.83;;;15.80;99.90;;;;;;5125032;28;20441;-80
2021/09/25 06:54:31;;;;;;;0.50;0.40;;;15.90;99.90;;;;;;5124883;28;20478;-83
2021/09/25 06:56:58;;;;;;;0.53;0.47;;;16.00;99.90;;;;;;5124410;28;20473;-83
2021/09/25 06:59:25;;;;;;;0.70;0.60;;;16.00;99.90;;;;;;5124359;28;20437;-82
2021/09/25 07:01:51;;;;;;;0.50;0.30;;;16.00;99.90;;;;;;5123932;28;20434;-80
2021/09/25 07:04:19;;;;;;;0.50;0.40;;;16.10;99.90;;;;;;5124655;28;20432;-81
2021/09/25 07:06:47;;;;;;;0.50;0.30;;;16.20;99.90;;;;;;5125852;28;20793;-83
2021/09/25 07:09:14;;;;;;;0.50;0.30;;;16.20;99.90;;;;;;5125514;28;20439;-80
2021/09/25 07:11:41;;;;;;;0.90;0.73;;;16.20;99.90;;;;;;5123950;28;20430;-82
2021/09/25 07:14:07;;;;;;;0.50;0.30;;;16.20;99.90;;;;;;5125539;28;20900;-82
2021/09/25 07:16:35;;;;;;;0.50;0.30;;;16.30;99.90;;;;;;5127882;28;20427;-80
2021/09/25 07:19:04;;;;;;;0.50;0.30;;;16.30;99.90;;;;;;5127595;28;20458;-84
2021/09/25 07:21:30;;;;;;;0.50;0.40;;;16.40;99.90;;;;;;5127458;28;20462;-81
2021/09/25 07:23:58;;;;;;;0.60;0.60;;;16.40;99.90;;;;;;5123449;28;20432;-81
2021/09/25 07:26:25;;;;;;;0.50;0.40;;;16.50;99.90;;;;;;5126194;28;20431;-81
2021/09/25 07:28:52;;;;;;;0.80;0.80;;;16.60;99.90;;;;;;5124624;28;20501;-83
2021/09/25 07:31:19;;;;;;;0.50;0.40;;;16.60;99.90;;;;;;5123724;28;20519;-80
2021/09/25 07:33:46;;;;;;;1.60;1.50;;;16.60;99.90;;;;;;5124819;28;20510;-81
2021/09/25 07:36:12;;;;;;;0.50;0.40;;;16.60;99.90;;;;;;5127078;28;20439;-82
2021/09/25 07:38:39;;;;;;;0.50;0.40;;;16.60;99.90;;;;;;5125980;28;20441;-82
2021/09/25 07:41:07;;;;;;;0.50;0.40;;;16.70;99.90;;;;;;5125772;28;20493;-82
2021/09/25 07:43:34;;;;;;;0.50;0.30;;;16.60;99.90;;;;;;5126424;28;20441;-80
2021/09/25 07:46:01;;;;;;;0.50;0.40;;;16.70;99.90;;;;;;5127950;28;20433;-82
2021/09/25 07:48:28;;;;;;;0.50;0.30;;;16.70;99.90;;;;;;5126185;28;20459;-84
2021/09/25 07:50:54;;;;;;;0.50;0.50;;;16.80;99.90;;;;;;5125444;28;20471;-82
2021/09/25 07:53:21;;;;;;;0.50;0.33;;;16.90;99.90;;;;;;5129707;28;20436;-79
2021/09/25 07:55:48;;;;;;;0.50;0.40;;;17.00;99.90;;;;;;5129806;28;20460;-83
2021/09/25 07:58:16;;;;;;;0.50;0.30;;;17.10;99.90;;;;;;5129608;28;20489;-82
2021/09/25 08:00:43;;;;;;;0.50;0.40;;;17.20;99.90;;;;;;5128677;28;20467;-82
2021/09/25 08:03:10;;;;;;;0.50;0.30;;;17.30;99.90;;;;;;5135307;28;20467;-86
2021/09/25 08:05:36;;;;;;;1.10;1.10;;;17.20;99.90;;;;;;5138691;28;20444;-85
2021/09/25 08:08:04;;;;;;;1.27;1.27;;;17.10;99.90;;;;;;5134813;28;20441;-84
2021/09/25 08:10:31;;;;;;;0.50;0.40;;;17.00;99.90;;;;;;5131909;28;20461;-85
2021/09/25 08:12:58;;;;;;;0.50;0.40;;;17.00;99.90;;;;;;5132656;28;20439;-83
2021/09/25 08:15:26;;;;;;;0.50;0.30;;;17.10;99.90;;;;;;5131827;28;20465;-79
2021/09/25 08:17:52;;;;;;;2.60;1.00;;;17.10;99.90;;;;;;5132079;27;20443;-83
2021/09/25 08:20:21;;;;;;;1.10;0.70;;;17.30;99.90;;;;;;5129917;28;20823;-80
2021/09/25 08:22:48;;;;;;;0.50;0.30;;;17.30;99.90;;;;;;5131473;28;20434;-81
2021/09/25 08:25:17;;;;;;;0.50;0.40;;;17.40;99.90;;;;;;5131668;28;20822;-83
2021/09/25 08:27:44;;;;;;;0.50;0.40;;;17.50;99.90;;;;;;5131687;28;20443;-81
2021/09/25 08:30:12;;;;;;;0.60;0.50;;;17.60;99.90;;;;;;5130522;28;20452;-79
2021/09/25 08:32:41;;;;;;;0.50;0.30;;;17.50;99.90;;;;;;5130441;28;20440;-82
2021/09/25 08:35:09;;;;;;;0.60;0.50;;;17.40;99.90;;;;;;5130759;28;20473;-83
2021/09/25 08:38:27;;;;;;;0.50;0.30;;;17.50;99.90;;;;;;5130973;28;20437;-82
2021/09/25 08:40:55;;;;;;;0.83;0.83;;;17.70;99.90;;;;;;5116187;28;20470;-82
2021/09/25 08:43:24;;;;;;;0.50;0.43;;;17.70;99.90;;;;;;5133901;28;20437;-82
2021/09/25 08:45:56;;;;;;;1.93;1.83;;;17.50;99.90;;;;;;5131109;28;20887;-82
2021/09/25 08:48:25;;;;;;;0.50;0.30;;;17.60;99.90;;;;;;5131245;28;20428;-81
2021/09/25 08:50:52;;;;;;;0.50;0.40;;;17.80;99.90;;;;;;5129066;28;20464;-84
2021/09/25 08:53:18;;;;;;;1.83;1.73;;;18.10;99.90;;;;;;5130764;28;20438;-81
2021/09/25 08:55:45;;;;;;;0.50;0.40;;;18.10;99.90;;;;;;5130442;28;20471;-82
2021/09/25 08:58:12;;;;;;;1.33;1.23;;;18.10;99.90;;;;;;5130825;28;20500;-81
2021/09/25 09:00:42;;;;;;;1.13;0.90;;;18.20;99.90;;;;;;5129373;28;20464;-79
2021/09/25 09:03:32;;;;;;;0.50;0.30;;;18.30;99.90;;;;;;5129155;28;20434;-83
2021/09/25 09:06:15;;;;;;;0.50;0.30;;;18.60;99.90;;;;;;5129853;27;20463;-83
2021/09/25 09:08:45;;;;;;;4.00;0.83;;;18.80;99.90;;;;;;5128824;27;20436;-82
2021/09/25 09:11:13;;;;;;;0.60;0.60;;;18.70;99.90;;;;;;5129550;28;20455;-81
2021/09/25 09:13:42;;;;;;;0.50;0.30;;;18.90;99.90;;;;;;5129697;28;20457;-81
2021/09/25 09:16:10;;;;;;;0.50;0.30;;;19.00;99.90;;;;;;5129462;27;20470;-80
2021/09/25 09:18:40;;;;;;;0.70;0.70;;;19.20;99.90;;;;;;5129864;28;20438;-81
2021/09/25 09:21:10;;;;;;;0.50;0.30;;;19.30;99.90;;;;;;5128910;28;20528;-83
2021/09/25 09:23:38;;;;;;;0.50;0.40;;;19.40;99.90;;;;;;5130194;28;20434;-84
2021/09/25 09:26:08;;;;;;;1.00;1.00;;;19.40;99.90;;;;;;5129469;28;20497;-84
2021/09/25 09:28:37;;;;;;;2.10;1.10;;;19.40;99.90;;;;;;5129545;28;20514;-81
2021/09/25 09:31:07;;;;;;;4.93;1.93;;;19.50;99.90;;;;;;5128767;28;20462;-81
2021/09/25 09:33:41;;;;;;;2.20;1.03;;;19.20;99.90;;;;;;5129341;28;20432;-81
2021/09/25 09:36:19;;;;;;;0.60;0.43;;;19.10;99.90;;;;;;5127811;28;20488;-79
2021/09/25 09:38:50;;;;;;;2.73;1.37;;;19.00;99.90;;;;;;5128052;28;20824;-82
2021/09/25 09:41:19;;;;;;;1.13;0.60;;;18.90;99.90;;;;;;5127478;28;20491;-80
2021/09/25 09:43:46;;;;;;;0.50;0.30;;;18.90;99.90;;;;;;5127121;28;20799;-81
2021/09/25 09:46:12;;;;;;;1.23;0.97;;;19.00;99.90;;;;;;5125399;28;20482;-80
2021/09/25 09:48:41;;;;;;;0.60;0.43;;;19.20;99.90;;;;;;5124396;28;20438;-80
2021/09/25 09:51:08;;;;;;;0.60;0.40;;;19.20;99.90;;;;;;5123760;28;20462;-83
2021/09/25 09:53:44;;;;;;;1.07;0.67;;;19.10;99.90;;;;;;5124147;28;20446;-80
2021/09/25 09:56:18;;;;;;;0.50;0.40;;;19.10;99.90;;;;;;5124790;28;20462;-81
2021/09/25 09:58:45;;;;;;;0.50;0.30;;;19.20;99.90;;;;;;5123475;28;20437;-80
2021/09/25 10:01:12;;;;;;;0.50;0.30;;;19.20;99.90;;;;;;5122872;28;20473;-82
2021/09/25 10:03:40;;;;;;;0.50;0.40;;;19.30;99.90;;;;;;5123077;28;20437;-80
2021/09/25 10:06:07;;;;;;;0.60;0.60;;;19.30;99.90;;;;;;5123177;28;20483;-80
2021/09/25 10:08:34;;;;;;;1.17;1.03;;;19.30;99.90;;;;;;5124750;28;20442;-80
2021/09/25 10:11:01;;;;;;;0.50;0.30;;;19.50;99.90;;;;;;5123518;28;20458;-83
2021/09/25 10:13:28;;;;;;;0.50;0.30;;;19.50;99.90;;;;;;5123349;28;20434;-81
2021/09/25 10:15:55;;;;;;;0.60;0.50;;;19.70;99.90;;;;;;5123647;28;20478;-84
2021/09/25 10:18:22;;;;;;;4.20;1.00;;;19.70;99.90;;;;;;5123916;28;20442;-80
2021/09/25 10:20:50;;;;;;;0.67;0.57;;;19.90;99.90;;;;;;5123045;28;20471;-80
2021/09/25 10:23:17;;;;;;;0.50;0.40;;;19.80;99.90;;;;;;5124387;28;20668;-79
2021/09/25 10:25:44;;;;;;;2.10;1.40;;;19.70;99.90;;;;;;5124068;28;20448;-82
2021/09/25 10:28:23;;;;;;;1.50;1.40;;;19.90;99.90;;;;;;5124448;28;20929;-80
2021/09/25 10:30:52;;;;;;;0.60;0.50;;;19.80;99.90;;;;;;5123247;28;20497;-83
2021/09/25 10:33:22;;;;;;;0.50;0.30;;;19.70;99.90;;;;;;5122996;28;20441;-82
2021/09/25 10:35:51;;;;;;;0.50;0.30;;;20.00;99.90;;;;;;5122622;28;20916;-82
2021/09/25 10:38:33;;;;;;;0.50;0.30;;;20.20;99.90;;;;;;5124543;28;20441;-81
2021/09/25 10:41:14;;;;;;;4.03;2.23;;;20.60;99.90;;;;;;5122006;28;20461;-81
2021/09/25 10:43:44;;;;;;;0.50;0.40;;;20.90;99.90;;;;;;5123638;28;20474;-80
2021/09/25 10:46:12;;;;;;;0.50;0.37;;;21.00;99.90;;;;;;5124171;28;20423;-81
2021/09/25 10:48:47;;;;;;;1.20;1.20;;;21.20;99.90;;;;;;5123806;28;20432;-81
2021/09/25 10:51:18;;;;;;;0.50;0.37;;;21.40;99.90;;;;;;5123326;28;20457;-80
2021/09/25 10:53:47;;;;;;;1.43;1.43;;;21.70;99.90;;;;;;5123332;28;20442;-81
2021/09/25 10:56:19;;;;;;;0.50;0.37;;;22.00;99.90;;;;;;5122293;28;20478;-82
2021/09/25 10:58:55;;;;;;;0.50;0.40;;;21.90;99.90;;;;;;5124880;28;20438;-81
2021/09/25 11:01:33;;;;;;;0.50;0.40;;;22.00;99.90;;;;;;5122538;28;20496;-80
2021/09/25 11:04:06;;;;;;;1.93;1.33;;;21.60;99.90;;;;;;5123406;28;20422;-81
2021/09/25 11:06:53;;;;;;;1.00;0.60;;;21.20;99.90;;;;;;5123568;28;20453;-83
2021/09/25 11:09:27;;;;;;;0.50;0.40;;;21.20;99.90;;;;;;5122655;28;20773;-80
2021/09/25 11:11:55;;;;;;;0.50;0.30;;;21.00;99.90;;;;;;5122709;28;20447;-82
2021/09/25 11:14:28;;;;;;;0.77;0.77;;;21.00;99.90;;;;;;5127657;28;20445;-80
2021/09/25 11:17:04;;;;;;;0.50;0.40;;;21.20;99.90;;;;;;5129774;28;20480;-81
2021/09/25 11:19:47;;;;;;;0.50;0.40;;;21.50;99.90;;;;;;5129048;28;20465;-82
2021/09/25 11:22:18;;;;;;;0.70;0.60;;;21.50;99.90;;;;;;5129121;28;20437;-84
2021/09/25 11:24:48;;;;;;;0.50;0.33;;;21.70;99.90;;;;;;5130257;28;20437;-82
2021/09/25 11:27:17;;;;;;;0.50;0.30;;;21.90;99.90;;;;;;5131545;28;20433;-84
2021/09/25 11:29:56;;;;;;;0.50;0.40;;;21.90;99.90;;;;;;5133168;28;20469;-84
2021/09/25 11:32:29;;;;;;;0.50;0.30;;;22.00;99.90;;;;;;5133093;28;20426;-84
2021/09/25 11:34:57;;;;;;;0.50;0.40;;;22.20;99.90;;;;;;5133566;28;20449;-84
2021/09/25 11:37:27;;;;;;;0.70;0.70;;;22.30;99.90;;;;;;5133874;28;20478;-84
2021/09/25 11:39:54;;;;;;;0.50;0.30;;;22.30;99.90;;;;;;5133108;28;20472;-84
2021/09/25 11:42:23;;;;;;;0.50;0.30;;;22.20;99.90;;;;;;5132019;28;20464;-84
2021/09/25 11:44:54;;;;;;;0.50;0.30;;;22.40;99.90;;;;;;5133369;28;20811;-85
2021/09/25 11:47:25;;;;;;;0.50;0.37;;;22.50;99.90;;;;;;5133130;28;20438;-83
2021/09/25 11:49:53;;;;;;;0.50;0.30;;;22.60;99.90;;;;;;5132790;27;20467;-83
2021/09/25 11:52:20;;;;;;;0.50;0.30;;;22.40;99.90;;;;;;5131812;28;20438;-83
2021/09/25 11:54:48;;;;;;;0.50;0.33;;;22.40;99.90;;;;;;5132215;28;20441;-84
2021/09/25 11:57:18;;;;;;;0.60;0.57;;;22.50;99.90;;;;;;5132975;28;20470;-84
2021/09/25 11:59:46;;;;;;;0.50;0.40;;;22.60;99.90;;;;;;5132686;28;20490;-84
2021/09/25 12:02:36;;;;;;;0.50;0.50;;;22.60;99.90;;;;;;5132260;28;20887;-85
2021/09/25 12:05:04;;;;;;;0.50;0.40;;;22.70;99.90;;;;;;5126206;28;20443;-84
2021/09/25 12:07:40;;;;;;;0.50;0.40;;;22.70;99.90;;;;;;5126190;28;20437;-79
2021/09/25 12:10:16;;;;;;;0.50;0.30;;;22.60;99.90;;;;;;5127045;28;20459;-79
2021/09/25 12:12:43;;;;;;;0.93;0.93;;;22.40;99.90;;;;;;5127871;28;20619;-81
2021/09/25 12:15:10;;;;;;;0.50;0.40;;;22.20;99.90;;;;;;5127808;28;20442;-84
2021/09/25 12:17:37;;;;;;;0.50;0.40;;;22.10;99.90;;;;;;5127113;28;20669;-81
2021/09/25 12:20:20;;;;;;;0.50;0.30;;;22.20;99.90;;;;;;5126839;28;20539;-80
2021/09/25 12:22:47;;;;;;;0.50;0.30;;;22.40;99.90;;;;;;5128295;28;20448;-81
2021/09/25 12:25:15;;;;;;;0.50;0.30;;;22.40;99.90;;;;;;5127882;28;20450;-80
2021/09/25 12:27:42;;;;;;;0.50;0.30;;;22.10;99.90;;;;;;5127016;28;20435;-81
2021/09/25 12:30:11;;;;;;;0.50;0.30;;;22.20;99.90;;;;;;5125530;28;20485;-82
2021/09/25 12:32:40;;;;;;;0.50;0.40;;;22.30;99.90;;;;;;5125861;28;20427;-80
2021/09/25 12:35:18;;;;;;;0.50;0.40;;;22.20;99.90;;;;;;5128416;27;20439;-81
2021/09/25 12:37:48;;;;;;;0.50;0.30;;;22.30;99.90;;;;;;5125904;28;20419;-81
2021/09/25 12:40:16;;;;;;;0.50;0.30;;;22.50;99.90;;;;;;5126156;28;20463;-81
2021/09/25 12:42:43;;;;;;;0.50;0.30;;;22.50;99.90;;;;;;5127013;28;20437;-82
2021/09/25 12:45:11;;;;;;;0.50;0.30;;;22.60;99.90;;;;;;5126798;28;20441;-84
2021/09/25 12:47:39;;;;;;;0.50;0.40;;;22.50;99.90;;;;;;5126712;28;20431;-82
2021/09/25 12:50:17;;;;;;;0.50;0.30;;;22.80;99.90;;;;;;5129272;28;20468;-80
2021/09/25 12:52:44;;;;;;;0.50;0.40;;;22.80;99.90;;;;;;5130775;28;20436;-83
2021/09/25 12:55:15;;;;;;;0.50;0.40;;;22.90;99.90;;;;;;5128136;28;20439;-81